Time;durP1;ratioP1;P1;durP2;ratioP2;P2;SDS_P1;SDS_P2;PMS_P1;PMS_P2;Temp;Humidity;BMP_temperature;BMP_pressure;BME280_temperature;BME280_humidity;BME280_pressure;Samples;Min_cycle;Max_cycle;Signal;HPM_P1;HPM_P2
2021/10/15 00:02:02;;;;;;;5.90;4.80;;;3.90;99.90;;;;;;4765163;30;20481;-89
2021/10/15 00:04:38;;;;;;;5.30;4.68;;;4.00;99.90;;;;;;4742156;29;20062;-83
2021/10/15 00:07:05;;;;;;;7.50;4.85;;;4.00;99.90;;;;;;4784806;30;20393;-82
2021/10/15 00:09:34;;;;;;;6.35;5.75;;;3.90;99.90;;;;;;4783592;29;20051;-83
2021/10/15 00:12:02;;;;;;;6.25;4.35;;;3.90;99.90;;;;;;4782150;30;20066;-82
2021/10/15 00:14:30;;;;;;;6.13;4.35;;;3.70;99.90;;;;;;4742532;30;20526;-83
2021/10/15 00:16:58;;;;;;;6.30;5.70;;;3.70;99.90;;;;;;4750544;30;20052;-83
2021/10/15 00:19:26;;;;;;;7.93;4.95;;;3.70;99.90;;;;;;4735788;30;20084;-82
2021/10/15 00:21:53;;;;;;;5.63;5.07;;;3.80;99.90;;;;;;4765085;30;20052;-83
2021/10/15 00:24:21;;;;;;;6.45;5.85;;;3.80;99.90;;;;;;4749458;30;20062;-82
2021/10/15 00:26:49;;;;;;;6.80;5.85;;;3.80;99.90;;;;;;4781081;30;20063;-82
2021/10/15 00:29:16;;;;;;;7.88;6.13;;;3.70;99.90;;;;;;4782348;30;20051;-82
2021/10/15 00:31:45;;;;;;;5.03;4.53;;;3.60;99.90;;;;;;4767360;30;20104;-82
2021/10/15 00:34:13;;;;;;;8.55;5.50;;;3.60;99.90;;;;;;4767708;30;20047;-82
2021/10/15 00:36:41;;;;;;;6.32;4.97;;;3.60;99.90;;;;;;4782775;30;20055;-82
2021/10/15 00:39:09;;;;;;;9.38;5.32;;;3.60;99.90;;;;;;4767860;30;20058;-83
2021/10/15 00:41:36;;;;;;;7.72;5.38;;;3.60;99.90;;;;;;4767018;30;20414;-82
2021/10/15 00:44:07;;;;;;;6.93;5.93;;;3.60;99.90;;;;;;4781890;30;20410;-82
2021/10/15 00:46:36;;;;;;;6.50;5.38;;;3.60;99.90;;;;;;4767339;30;20532;-83
2021/10/15 00:49:11;;;;;;;5.88;5.30;;;3.60;99.90;;;;;;4763863;30;20052;-82
2021/10/15 00:51:41;;;;;;;8.52;6.38;;;3.50;99.90;;;;;;4764666;30;20074;-83
2021/10/15 00:54:12;;;;;;;6.70;6.10;;;3.40;99.90;;;;;;4765456;30;20052;-83
2021/10/15 00:56:43;;;;;;;6.67;5.97;;;3.40;99.90;;;;;;4765225;30;20052;-82
2021/10/15 00:59:11;;;;;;;8.10;7.35;;;3.40;99.90;;;;;;4748658;30;20286;-82
2021/10/15 01:01:40;;;;;;;8.57;6.43;;;3.30;99.90;;;;;;4764265;30;20514;-82
2021/10/15 01:04:08;;;;;;;7.40;6.68;;;3.30;99.90;;;;;;4757054;30;20075;-82
2021/10/15 01:06:36;;;;;;;6.60;6.05;;;3.50;99.90;;;;;;4763170;30;20052;-82
2021/10/15 01:09:04;;;;;;;7.90;6.00;;;3.40;99.90;;;;;;4749134;30;20075;-82
2021/10/15 01:11:32;;;;;;;7.43;6.72;;;3.40;99.90;;;;;;4749180;30;20386;-83
2021/10/15 01:14:03;;;;;;;8.85;6.75;;;3.50;99.90;;;;;;4763103;30;20055;-82
2021/10/15 01:16:34;;;;;;;7.78;5.60;;;3.40;99.90;;;;;;4749379;30;20062;-82
2021/10/15 01:19:03;;;;;;;6.20;4.93;;;3.40;99.90;;;;;;4764545;30;20056;-82
2021/10/15 01:21:30;;;;;;;5.55;5.00;;;3.40;99.90;;;;;;4748282;30;20059;-84
2021/10/15 01:23:59;;;;;;;10.65;7.53;;;3.40;99.90;;;;;;4765022;30;20063;-82
2021/10/15 01:26:27;;;;;;;6.55;4.18;;;3.40;99.90;;;;;;4781332;30;20063;-82
2021/10/15 01:28:55;;;;;;;6.07;4.53;;;3.50;99.90;;;;;;4765099;30;20051;-83
2021/10/15 01:31:23;;;;;;;5.75;4.20;;;3.60;99.90;;;;;;4736984;30;20055;-82
2021/10/15 01:33:55;;;;;;;4.03;3.67;;;3.70;99.90;;;;;;4766678;30;20055;-82
2021/10/15 01:36:23;;;;;;;5.53;4.63;;;3.90;99.90;;;;;;4752329;30;20055;-82
2021/10/15 01:38:51;;;;;;;9.07;5.60;;;3.80;99.90;;;;;;4766490;30;20056;-82
2021/10/15 01:41:19;;;;;;;4.97;4.13;;;3.70;99.90;;;;;;4781825;30;20406;-82
2021/10/15 01:43:47;;;;;;;5.20;4.70;;;3.70;99.90;;;;;;4750713;30;20058;-83
2021/10/15 01:46:15;;;;;;;3.75;3.38;;;3.70;99.90;;;;;;4766612;30;20047;-82
2021/10/15 01:48:44;;;;;;;4.95;3.75;;;3.70;99.90;;;;;;4782544;30;20063;-82
2021/10/15 01:51:12;;;;;;;5.00;4.60;;;3.70;99.90;;;;;;4782410;30;20051;-82
2021/10/15 01:53:41;;;;;;;5.82;4.22;;;3.70;99.90;;;;;;4751152;30;20059;-82
2021/10/15 01:56:09;;;;;;;3.00;2.75;;;3.80;99.90;;;;;;4751759;29;20067;-82
2021/10/15 01:58:37;;;;;;;3.58;3.10;;;3.90;99.90;;;;;;4749751;30;20051;-82
2021/10/15 02:01:05;;;;;;;5.07;3.55;;;3.90;99.90;;;;;;4765865;30;20047;-82
2021/10/15 02:03:35;;;;;;;3.42;3.22;;;4.00;99.90;;;;;;4751913;30;20063;-82
2021/10/15 02:06:03;;;;;;;3.80;3.40;;;4.00;99.90;;;;;;4766282;30;20055;-82
2021/10/15 02:08:30;;;;;;;3.53;3.33;;;3.90;99.90;;;;;;4781384;30;20051;-82
2021/10/15 02:10:58;;;;;;;3.85;3.05;;;3.90;99.90;;;;;;4782140;29;20070;-82
2021/10/15 02:13:26;;;;;;;5.05;4.60;;;3.70;99.90;;;;;;4764456;30;20493;-82
2021/10/15 02:15:54;;;;;;;4.03;3.63;;;3.40;99.90;;;;;;4782971;30;20066;-82
2021/10/15 02:18:22;;;;;;;6.60;4.10;;;3.30;99.90;;;;;;4782576;30;20086;-82
2021/10/15 02:20:50;;;;;;;8.68;3.85;;;3.30;99.90;;;;;;4781368;30;20060;-82
2021/10/15 02:23:18;;;;;;;4.47;3.55;;;3.40;99.90;;;;;;4782659;30;20055;-83
2021/10/15 02:25:47;;;;;;;5.35;3.65;;;3.40;99.90;;;;;;4766288;30;20052;-82
2021/10/15 02:28:14;;;;;;;4.28;2.80;;;3.40;99.90;;;;;;4764933;30;20403;-82
2021/10/15 02:30:43;;;;;;;3.88;3.55;;;3.40;99.90;;;;;;4764661;30;20501;-82
2021/10/15 02:33:12;;;;;;;5.07;3.38;;;3.40;99.90;;;;;;4751141;30;20052;-82
2021/10/15 02:35:40;;;;;;;4.97;4.57;;;3.40;99.90;;;;;;4751917;30;20426;-82
2021/10/15 02:38:07;;;;;;;4.55;3.70;;;3.50;99.90;;;;;;4765585;30;20051;-82
2021/10/15 02:40:36;;;;;;;4.20;3.80;;;3.50;99.90;;;;;;4750573;30;20229;-82
2021/10/15 02:43:03;;;;;;;4.13;3.22;;;3.40;99.90;;;;;;4764979;30;20047;-82
2021/10/15 02:45:32;;;;;;;4.47;2.70;;;3.30;99.90;;;;;;4781393;30;20050;-86
2021/10/15 02:48:00;;;;;;;9.95;3.35;;;3.30;99.90;;;;;;4774392;29;20054;-86
2021/10/15 02:50:28;;;;;;;4.22;3.75;;;3.20;99.90;;;;;;4766845;30;20072;-86
2021/10/15 02:52:55;;;;;;;3.88;3.55;;;3.10;99.90;;;;;;4766960;30;20047;-86
2021/10/15 02:55:25;;;;;;;3.38;2.95;;;3.10;99.90;;;;;;4751666;30;20070;-87
2021/10/15 02:57:52;;;;;;;4.22;3.83;;;3.10;99.90;;;;;;4734725;30;20062;-86
2021/10/15 03:00:20;;;;;;;3.90;3.63;;;3.10;99.90;;;;;;4751155;30;20064;-87
2021/10/15 03:02:48;;;;;;;6.20;3.97;;;3.00;99.90;;;;;;4767353;30;20075;-87
2021/10/15 03:05:16;;;;;;;2.88;2.67;;;3.00;99.90;;;;;;4764455;30;20047;-86
2021/10/15 03:07:43;;;;;;;4.35;3.47;;;3.00;99.90;;;;;;4754659;30;20055;-86
2021/10/15 03:10:11;;;;;;;4.50;4.18;;;3.10;99.90;;;;;;4754152;30;20392;-86
2021/10/15 03:12:39;;;;;;;3.42;2.95;;;3.20;99.90;;;;;;4752371;30;20062;-86
2021/10/15 03:15:08;;;;;;;4.50;2.55;;;3.10;99.90;;;;;;4785447;30;20592;-86
2021/10/15 03:17:35;;;;;;;3.40;3.20;;;3.00;99.90;;;;;;4768946;30;20062;-86
2021/10/15 03:20:04;;;;;;;4.60;2.35;;;2.80;99.90;;;;;;4785147;30;20473;-86
2021/10/15 03:22:31;;;;;;;4.65;2.65;;;2.80;99.90;;;;;;4753811;30;20421;-85
2021/10/15 03:24:59;;;;;;;7.38;3.33;;;2.80;99.90;;;;;;4753404;30;20062;-86
2021/10/15 03:27:27;;;;;;;3.78;3.20;;;2.70;99.90;;;;;;4767824;30;20059;-87
2021/10/15 03:29:55;;;;;;;5.38;3.75;;;2.90;99.90;;;;;;4754002;30;20066;-86
2021/10/15 03:32:22;;;;;;;4.25;2.80;;;2.90;99.90;;;;;;4785398;29;20059;-85
2021/10/15 03:34:50;;;;;;;3.50;2.63;;;2.80;99.90;;;;;;4754381;30;20051;-85
2021/10/15 03:37:18;;;;;;;3.67;3.28;;;2.70;99.90;;;;;;4784408;30;20540;-87
2021/10/15 03:39:45;;;;;;;4.05;3.33;;;2.60;99.90;;;;;;4770507;30;20047;-86
2021/10/15 03:42:13;;;;;;;6.70;3.17;;;2.50;99.90;;;;;;4751893;30;20055;-86
2021/10/15 03:44:41;;;;;;;4.15;3.25;;;2.40;99.90;;;;;;4763340;30;20071;-86
2021/10/15 03:47:09;;;;;;;3.58;3.28;;;2.20;99.90;;;;;;4758751;30;20062;-86
2021/10/15 03:49:36;;;;;;;4.60;3.80;;;2.20;99.90;;;;;;4761534;30;20072;-86
2021/10/15 03:52:05;;;;;;;6.45;3.40;;;2.40;99.90;;;;;;4760673;30;20059;-86
2021/10/15 03:54:33;;;;;;;6.25;4.30;;;2.40;99.90;;;;;;4767794;30;20047;-86
2021/10/15 03:57:00;;;;;;;3.45;3.13;;;2.50;99.90;;;;;;4768797;30;20151;-86
2021/10/15 03:59:28;;;;;;;3.17;2.70;;;2.60;99.90;;;;;;4775329;29;20410;-86
2021/10/15 04:01:56;;;;;;;3.25;2.95;;;2.60;99.90;;;;;;4782593;30;20055;-86
2021/10/15 04:04:24;;;;;;;3.42;3.22;;;2.40;99.90;;;;;;4780128;30;20051;-86
2021/10/15 04:06:52;;;;;;;3.92;3.35;;;2.30;99.90;;;;;;4752149;30;20048;-86
2021/10/15 04:09:19;;;;;;;3.50;3.20;;;2.30;99.90;;;;;;4751368;30;20059;-86
2021/10/15 04:11:47;;;;;;;5.57;3.63;;;2.50;99.90;;;;;;4752696;30;20052;-86
2021/10/15 04:14:15;;;;;;;4.88;4.45;;;2.70;99.90;;;;;;4775264;30;20067;-86
2021/10/15 04:16:43;;;;;;;4.15;3.72;;;2.70;99.90;;;;;;4770372;30;20056;-86
2021/10/15 04:19:11;;;;;;;8.38;5.10;;;2.70;99.90;;;;;;4787053;30;20059;-86
2021/10/15 04:21:38;;;;;;;4.20;3.65;;;2.70;99.90;;;;;;4754970;30;20537;-86
2021/10/15 04:24:06;;;;;;;3.85;3.55;;;2.60;99.90;;;;;;4755970;30;20043;-85
2021/10/15 04:26:34;;;;;;;3.63;3.30;;;2.70;99.90;;;;;;4786153;30;20127;-85
2021/10/15 04:29:02;;;;;;;5.25;4.60;;;2.70;99.90;;;;;;4768598;30;20051;-82
2021/10/15 04:31:30;;;;;;;6.43;3.80;;;2.60;99.90;;;;;;4768326;30;20421;-82
2021/10/15 04:33:57;;;;;;;5.57;3.58;;;2.40;99.90;;;;;;4753593;30;20055;-82
2021/10/15 04:36:25;;;;;;;3.13;2.85;;;2.20;99.90;;;;;;4784873;30;20047;-82
2021/10/15 04:38:53;;;;;;;6.32;3.55;;;2.20;99.90;;;;;;4768055;30;20059;-82
2021/10/15 04:41:21;;;;;;;4.72;4.30;;;2.20;99.90;;;;;;4783958;30;20055;-82
2021/10/15 04:43:49;;;;;;;6.03;3.33;;;2.30;99.90;;;;;;4752318;30;20066;-82
2021/10/15 04:46:17;;;;;;;3.40;3.15;;;2.60;99.90;;;;;;4767451;30;20043;-83
2021/10/15 04:48:44;;;;;;;5.43;3.63;;;2.70;99.90;;;;;;4768171;30;20495;-82
2021/10/15 04:51:12;;;;;;;4.68;3.45;;;2.60;99.90;;;;;;4735026;30;20063;-82
2021/10/15 04:53:40;;;;;;;6.60;4.47;;;2.70;99.90;;;;;;4751382;30;20062;-80
2021/10/15 04:56:09;;;;;;;4.05;3.22;;;2.70;99.90;;;;;;4765020;30;20055;-80
2021/10/15 04:58:38;;;;;;;3.42;3.17;;;2.70;99.90;;;;;;4716018;30;20056;-81
2021/10/15 05:01:06;;;;;;;4.55;4.15;;;2.70;99.90;;;;;;4732009;30;20045;-82
2021/10/15 05:03:34;;;;;;;3.67;3.42;;;2.80;99.90;;;;;;4735694;30;20097;-82
2021/10/15 05:06:03;;;;;;;5.45;3.92;;;2.90;99.90;;;;;;4752049;30;20517;-83
2021/10/15 05:08:39;;;;;;;3.45;3.00;;;3.00;99.90;;;;;;4737551;30;20063;-82
2021/10/15 05:11:07;;;;;;;5.15;4.45;;;3.00;99.90;;;;;;4735383;30;20517;-82
2021/10/15 05:13:35;;;;;;;4.75;4.07;;;3.10;99.90;;;;;;4766661;30;20059;-82
2021/10/15 05:16:03;;;;;;;5.78;4.10;;;3.00;99.90;;;;;;4768242;30;20051;-83
2021/10/15 05:18:31;;;;;;;8.73;6.45;;;3.10;99.90;;;;;;4765963;30;20074;-83
2021/10/15 05:20:59;;;;;;;4.30;4.00;;;3.00;99.90;;;;;;4765441;30;20068;-83
2021/10/15 05:23:27;;;;;;;8.10;5.70;;;3.00;99.90;;;;;;4736968;30;20064;-83
2021/10/15 05:25:57;;;;;;;4.33;3.93;;;3.10;99.90;;;;;;4766227;30;20064;-83
2021/10/15 05:28:25;;;;;;;7.90;7.03;;;3.00;99.90;;;;;;4751238;30;20064;-82
2021/10/15 05:30:54;;;;;;;4.70;3.22;;;3.00;99.90;;;;;;4767287;30;20074;-81
2021/10/15 05:33:22;;;;;;;3.83;3.47;;;3.00;99.90;;;;;;4751561;30;20052;-82
2021/10/15 05:35:50;;;;;;;3.25;2.95;;;3.00;99.90;;;;;;4766728;30;20051;-82
2021/10/15 05:38:17;;;;;;;7.93;4.22;;;3.00;99.90;;;;;;4765498;30;20490;-83
2021/10/15 05:40:50;;;;;;;2.83;2.63;;;3.00;99.90;;;;;;4763228;30;20055;-83
2021/10/15 05:43:19;;;;;;;5.05;3.45;;;3.00;99.90;;;;;;4748627;30;20494;-82
2021/10/15 05:45:47;;;;;;;5.18;3.75;;;2.80;99.90;;;;;;4765777;30;20513;-83
2021/10/15 05:48:15;;;;;;;7.50;3.83;;;2.80;99.90;;;;;;4764717;30;20056;-82
2021/10/15 05:50:44;;;;;;;4.15;3.78;;;2.80;99.90;;;;;;4763589;30;20043;-84
2021/10/15 05:53:15;;;;;;;4.00;3.30;;;3.00;99.90;;;;;;4771229;30;20051;-82
2021/10/15 06:00:59;;;;;;;4.35;3.58;;;2.90;99.90;;;;;;4772636;30;20065;-82
2021/10/15 06:03:28;;;;;;;3.67;2.92;;;3.00;99.90;;;;;;4766773;30;20063;-82
2021/10/15 06:14:30;;;;;;;3.47;3.00;;;3.10;99.90;;;;;;4772659;30;20490;-82
2021/10/15 06:17:05;;;;;;;3.42;3.08;;;3.10;99.90;;;;;;4751522;30;20051;-84
2021/10/15 06:19:43;;;;;;;8.30;5.03;;;3.20;99.90;;;;;;4766869;30;20078;-85
2021/10/15 06:22:11;;;;;;;3.97;3.13;;;3.40;99.90;;;;;;4783064;29;20634;-84
2021/10/15 06:24:39;;;;;;;3.88;3.17;;;3.50;99.90;;;;;;4755425;29;20493;-84
2021/10/15 06:27:07;;;;;;;3.38;3.08;;;3.60;99.90;;;;;;4785385;29;20047;-84
2021/10/15 06:29:34;;;;;;;3.10;2.80;;;3.60;99.90;;;;;;4768894;30;20058;-84
2021/10/15 06:32:02;;;;;;;2.88;2.67;;;3.70;99.90;;;;;;4785872;30;20067;-84
2021/10/15 06:34:30;;;;;;;3.08;2.78;;;3.80;99.90;;;;;;4770137;30;20061;-84
2021/10/15 06:36:57;;;;;;;6.22;4.43;;;3.80;99.90;;;;;;4785901;30;20051;-84
2021/10/15 06:39:25;;;;;;;5.90;5.35;;;3.80;99.90;;;;;;4769934;29;20055;-84
2021/10/15 06:41:56;;;;;;;3.38;2.78;;;4.00;99.90;;;;;;4753502;30;20170;-84
2021/10/15 06:44:24;;;;;;;3.03;2.63;;;4.00;99.90;;;;;;4768548;30;20071;-84
2021/10/15 06:46:52;;;;;;;4.00;3.70;;;4.00;99.90;;;;;;4784361;30;20066;-84
2021/10/15 06:49:20;;;;;;;2.60;2.40;;;4.20;99.90;;;;;;4737336;30;20553;-84
2021/10/15 06:51:48;;;;;;;2.45;2.25;;;4.30;99.90;;;;;;4747043;30;20090;-85
2021/10/15 06:54:16;;;;;;;2.72;2.53;;;4.40;99.90;;;;;;4766687;30;20051;-84
2021/10/15 06:56:46;;;;;;;3.45;3.15;;;4.50;99.90;;;;;;4751104;30;20513;-84
2021/10/15 06:59:14;;;;;;;2.92;2.67;;;4.60;99.90;;;;;;4736369;30;20066;-84
2021/10/15 07:01:41;;;;;;;3.88;3.50;;;4.70;99.90;;;;;;4766179;30;20052;-85
2021/10/15 07:04:09;;;;;;;3.58;3.28;;;4.80;99.90;;;;;;4757502;30;20422;-85
2021/10/15 07:06:37;;;;;;;2.80;2.35;;;5.00;99.90;;;;;;4769919;30;20066;-85
2021/10/15 07:09:05;;;;;;;3.03;2.83;;;5.10;99.90;;;;;;4754777;30;20055;-84
2021/10/15 07:11:38;;;;;;;3.63;3.33;;;5.30;99.90;;;;;;4769252;30;20134;-85
2021/10/15 07:14:06;;;;;;;4.60;4.07;;;5.40;99.90;;;;;;4783540;30;20063;-85
2021/10/15 07:16:33;;;;;;;3.22;2.88;;;5.40;99.90;;;;;;4769024;30;20059;-85
2021/10/15 07:19:02;;;;;;;3.33;2.50;;;5.50;99.90;;;;;;4739280;30;20062;-85
2021/10/15 07:21:29;;;;;;;4.28;3.22;;;5.70;99.90;;;;;;4768266;30;20054;-84
2021/10/15 07:23:57;;;;;;;8.77;3.28;;;5.80;99.90;;;;;;4755145;30;20055;-85
2021/10/15 07:26:25;;;;;;;2.63;2.42;;;6.10;99.90;;;;;;4746586;30;20505;-85
2021/10/15 07:28:53;;;;;;;3.40;2.60;;;6.20;99.90;;;;;;4749499;30;20506;-85
2021/10/15 07:31:21;;;;;;;2.67;2.45;;;6.30;99.90;;;;;;4755617;30;20062;-85
2021/10/15 07:33:49;;;;;;;5.53;2.55;;;6.50;99.90;;;;;;4755149;30;20058;-82
2021/10/15 07:36:17;;;;;;;4.93;2.45;;;6.60;99.90;;;;;;4771552;30;20051;-82
2021/10/15 07:38:45;;;;;;;5.72;2.60;;;6.70;99.90;;;;;;4756190;30;20076;-85
2021/10/15 07:41:13;;;;;;;3.28;2.80;;;6.90;99.90;;;;;;4771176;30;20058;-83
2021/10/15 07:43:40;;;;;;;4.50;4.10;;;6.90;99.90;;;;;;4755474;30;20059;-84
2021/10/15 07:46:08;;;;;;;3.17;2.67;;;7.10;99.90;;;;;;4786289;29;20422;-84
2021/10/15 07:48:36;;;;;;;6.07;2.83;;;7.20;99.90;;;;;;4786284;29;20059;-84
2021/10/15 07:51:04;;;;;;;4.22;2.67;;;7.30;99.90;;;;;;4786763;30;20056;-84
2021/10/15 07:53:32;;;;;;;2.35;2.15;;;7.40;99.90;;;;;;4786477;30;20482;-84
2021/10/15 07:55:59;;;;;;;5.32;3.42;;;7.50;99.90;;;;;;4786204;30;20054;-86
2021/10/15 07:58:27;;;;;;;5.25;3.65;;;7.60;99.90;;;;;;4785907;29;20048;-86
2021/10/15 08:00:55;;;;;;;5.38;2.65;;;7.60;99.90;;;;;;4765552;29;20039;-85
2021/10/15 08:03:23;;;;;;;4.72;3.75;;;7.60;99.90;;;;;;4784708;30;20071;-86
2021/10/15 08:05:51;;;;;;;3.72;2.33;;;7.70;99.90;;;;;;4785614;30;20062;-86
2021/10/15 08:08:19;;;;;;;3.92;3.63;;;7.90;99.90;;;;;;4786291;30;20517;-86
2021/10/15 08:10:49;;;;;;;3.25;2.95;;;8.00;99.90;;;;;;4770478;30;20043;-86
2021/10/15 08:13:17;;;;;;;2.92;2.42;;;8.00;99.90;;;;;;4784870;30;20043;-86
2021/10/15 08:15:46;;;;;;;4.72;2.90;;;8.10;99.90;;;;;;4770917;30;20061;-86
2021/10/15 08:18:14;;;;;;;2.67;2.47;;;8.20;99.90;;;;;;4786896;29;20059;-86
2021/10/15 08:20:42;;;;;;;2.63;2.35;;;8.30;99.90;;;;;;4786297;30;20078;-86
2021/10/15 08:23:10;;;;;;;2.50;2.30;;;8.40;99.90;;;;;;4786711;30;20123;-86
2021/10/15 08:25:39;;;;;;;3.05;2.60;;;8.40;99.90;;;;;;4755873;30;20063;-87
2021/10/15 08:28:09;;;;;;;3.97;2.65;;;8.50;99.90;;;;;;4756069;30;20498;-87
2021/10/15 08:30:37;;;;;;;4.75;3.47;;;8.60;99.90;;;;;;4786028;30;20066;-87
2021/10/15 08:33:05;;;;;;;3.05;2.85;;;8.70;99.90;;;;;;4786559;30;20055;-86
2021/10/15 08:35:33;;;;;;;3.33;2.53;;;8.80;99.90;;;;;;4770057;30;20047;-81
2021/10/15 08:38:05;;;;;;;5.05;2.47;;;9.00;99.90;;;;;;4752646;30;20333;-81
2021/10/15 08:40:32;;;;;;;3.25;1.58;;;9.10;99.90;;;;;;4753109;30;20048;-82
2021/10/15 08:43:00;;;;;;;5.82;3.80;;;9.10;99.90;;;;;;4766356;30;20052;-86
2021/10/15 08:45:29;;;;;;;1.85;1.63;;;9.20;99.90;;;;;;4752649;30;20052;-87
2021/10/15 08:47:58;;;;;;;2.03;1.88;;;9.40;99.90;;;;;;4775485;30;20506;-87
2021/10/15 08:50:39;;;;;;;2.70;2.50;;;9.50;99.90;;;;;;4749861;30;20051;-86
2021/10/15 08:53:07;;;;;;;2.38;1.92;;;9.70;99.90;;;;;;4746838;30;20048;-86
2021/10/15 08:55:35;;;;;;;3.15;1.98;;;9.80;99.90;;;;;;4749323;30;20075;-86
2021/10/15 08:58:03;;;;;;;2.20;2.10;;;9.90;99.90;;;;;;4748439;30;20501;-86
2021/10/15 09:00:35;;;;;;;1.15;1.05;;;10.00;99.90;;;;;;4734733;30;20491;-86
2021/10/15 09:03:23;;;;;;;3.25;1.30;;;10.10;99.90;;;;;;4748844;30;20059;-86
2021/10/15 09:05:56;;;;;;;1.52;1.40;;;10.20;99.90;;;;;;4752018;30;20051;-81
2021/10/15 09:08:26;;;;;;;1.42;1.17;;;10.30;99.90;;;;;;4766716;30;20055;-81
2021/10/15 09:10:54;;;;;;;0.90;0.90;;;10.30;99.90;;;;;;4766580;30;20525;-80
2021/10/15 09:13:22;;;;;;;1.38;1.27;;;10.30;99.90;;;;;;4767138;30;20059;-82
2021/10/15 09:15:58;;;;;;;1.15;0.90;;;10.30;99.90;;;;;;4752314;30;20402;-82
2021/10/15 09:18:30;;;;;;;0.82;0.80;;;10.40;99.90;;;;;;4767847;30;20086;-87
2021/10/15 09:20:58;;;;;;;0.95;0.93;;;10.50;99.90;;;;;;4751687;30;20044;-85
2021/10/15 09:23:50;;;;;;;1.40;1.30;;;10.50;99.90;;;;;;4768302;30;20387;-87
2021/10/15 09:26:18;;;;;;;2.15;1.27;;;10.50;99.90;;;;;;4747236;30;20429;-81
2021/10/15 09:28:47;;;;;;;1.00;1.00;;;10.60;99.90;;;;;;4766779;30;20055;-86
2021/10/15 09:31:15;;;;;;;1.17;1.05;;;10.80;99.90;;;;;;4752014;30;20088;-82
2021/10/15 09:33:56;;;;;;;2.45;2.20;;;10.80;99.90;;;;;;4751913;30;20055;-82
2021/10/15 09:36:25;;;;;;;1.25;1.23;;;10.60;99.90;;;;;;4766716;30;20443;-82
2021/10/15 09:38:52;;;;;;;0.80;0.80;;;10.60;99.90;;;;;;4767520;30;20455;-82
2021/10/15 09:41:40;;;;;;;0.90;0.88;;;10.70;99.90;;;;;;4767114;30;20074;-82
2021/10/15 09:44:32;;;;;;;0.63;0.63;;;10.80;99.90;;;;;;4766032;30;20051;-82
2021/10/15 09:47:18;;;;;;;1.25;1.23;;;10.90;99.90;;;;;;4769606;30;20064;-82
2021/10/15 09:50:06;;;;;;;2.17;2.03;;;11.00;99.90;;;;;;4765544;30;20422;-82
2021/10/15 09:52:41;;;;;;;1.23;0.98;;;11.10;99.90;;;;;;4750947;30;20075;-83
2021/10/15 09:55:31;;;;;;;1.20;1.10;;;11.10;99.90;;;;;;4768034;30;20059;-83
2021/10/15 09:58:13;;;;;;;2.40;1.10;;;11.40;99.90;;;;;;4769884;30;20052;-83
2021/10/15 10:00:42;;;;;;;1.42;1.17;;;11.40;99.90;;;;;;4771036;30;20505;-83
2021/10/15 10:03:10;;;;;;;1.20;1.10;;;11.40;99.90;;;;;;4771064;30;20060;-82
2021/10/15 10:05:38;;;;;;;1.10;0.90;;;11.40;99.90;;;;;;4769187;30;20383;-83
2021/10/15 10:08:10;;;;;;;1.77;0.80;;;11.50;99.90;;;;;;4771242;30;20048;-83
2021/10/15 10:10:39;;;;;;;1.20;0.98;;;11.20;99.90;;;;;;4771036;30;20070;-82
2021/10/15 10:13:09;;;;;;;2.80;2.58;;;11.00;99.90;;;;;;4761605;30;20059;-82
2021/10/15 10:15:39;;;;;;;3.00;1.15;;;11.20;99.90;;;;;;4769572;30;20055;-82
2021/10/15 10:18:27;;;;;;;1.08;0.98;;;11.30;99.90;;;;;;4769387;30;20050;-85
2021/10/15 10:21:12;;;;;;;11.23;2.15;;;11.50;99.90;;;;;;4769526;30;20059;-85
2021/10/15 10:23:51;;;;;;;2.15;1.60;;;11.50;99.90;;;;;;4769567;30;20052;-85
2021/10/15 10:26:22;;;;;;;0.75;0.75;;;11.50;99.90;;;;;;4770773;30;20059;-84
2021/10/15 10:29:06;;;;;;;1.40;1.17;;;11.70;99.90;;;;;;4754064;30;20067;-84
2021/10/15 10:31:35;;;;;;;1.92;1.50;;;11.80;99.90;;;;;;4771072;30;20064;-82
2021/10/15 10:34:05;;;;;;;1.63;1.20;;;11.60;99.90;;;;;;4770670;30;20052;-83
2021/10/15 10:36:35;;;;;;;3.08;1.25;;;11.40;99.90;;;;;;4769648;30;20048;-83
2021/10/15 10:39:19;;;;;;;0.80;0.80;;;11.40;99.90;;;;;;4769052;30;20075;-83
2021/10/15 10:42:06;;;;;;;3.42;1.90;;;11.70;99.90;;;;;;4768517;30;20048;-85
2021/10/15 10:44:38;;;;;;;2.10;0.98;;;12.10;99.90;;;;;;4768226;29;20040;-82
2021/10/15 10:47:08;;;;;;;1.10;1.05;;;12.30;99.90;;;;;;4754446;30;20095;-84
2021/10/15 10:50:11;;;;;;;0.80;0.80;;;12.50;99.90;;;;;;4754619;30;20506;-84
2021/10/15 10:52:48;;;;;;;1.10;1.10;;;12.90;99.90;;;;;;4730912;29;20067;-84
2021/10/15 10:55:47;;;;;;;1.58;1.17;;;13.00;99.90;;;;;;4752854;30;20067;-84
2021/10/15 10:58:38;;;;;;;4.30;1.55;;;13.00;99.90;;;;;;4739391;30;20060;-84
2021/10/15 11:01:28;;;;;;;1.10;1.10;;;12.90;99.90;;;;;;4753559;30;20051;-84
2021/10/15 11:04:05;;;;;;;15.63;1.80;;;12.90;99.90;;;;;;4755391;30;20363;-85
2021/10/15 11:07:08;;;;;;;1.70;1.10;;;12.90;99.90;;;;;;4724528;30;20529;-84
2021/10/15 11:09:49;;;;;;;1.73;1.60;;;12.80;99.90;;;;;;4751581;30;20064;-85
2021/10/15 11:12:41;;;;;;;1.45;1.00;;;13.00;99.90;;;;;;4754057;30;20183;-85
2021/10/15 11:15:11;;;;;;;1.30;1.20;;;13.30;99.90;;;;;;4722341;30;20614;-85
2021/10/15 11:17:48;;;;;;;7.13;1.00;;;13.30;99.90;;;;;;4732389;30;20554;-84
2021/10/15 11:20:27;;;;;;;1.63;1.52;;;13.10;99.90;;;;;;4754640;30;20071;-85
2021/10/15 11:23:11;;;;;;;1.50;1.40;;;12.90;99.90;;;;;;4754769;30;20051;-85
2021/10/15 11:30:48;;;;;;;1.13;1.02;;;12.80;99.90;;;;;;4674993;30;20052;-84
2021/10/15 11:39:07;;;;;;;1.05;1.02;;;13.30;99.90;;;;;;4714658;30;20056;-84
2021/10/15 11:41:51;;;;;;;3.15;2.88;;;13.30;99.90;;;;;;4700259;30;20064;-85
2021/10/15 11:44:50;;;;;;;6.88;1.77;;;13.40;99.90;;;;;;4707563;30;20064;-85
2021/10/15 11:48:10;;;;;;;1.95;1.35;;;13.60;99.90;;;;;;4681177;30;20421;-84
2021/10/15 11:50:50;;;;;;;1.88;1.70;;;13.50;99.90;;;;;;4680311;30;20065;-85
2021/10/15 11:53:39;;;;;;;3.33;1.67;;;13.60;99.90;;;;;;4681821;30;20061;-85
2021/10/15 11:56:55;;;;;;;2.55;1.58;;;13.70;99.90;;;;;;4710861;30;20044;-85
2021/10/15 12:00:12;;;;;;;3.72;1.48;;;13.50;99.90;;;;;;4716641;30;20659;-86
2021/10/15 12:03:21;;;;;;;2.15;1.40;;;13.40;99.90;;;;;;4738282;30;20059;-85
2021/10/15 12:10:41;;;;;;;1.45;1.30;;;13.70;99.90;;;;;;4713455;30;20052;-85
2021/10/15 12:13:39;;;;;;;1.52;1.40;;;13.50;99.90;;;;;;4745629;30;20063;-85
2021/10/15 12:17:21;;;;;;;;;;;;;;;;;;;;;
2021/10/15 12:21:07;;;;;;;1.35;1.25;;;13.70;99.90;;;;;;4718405;30;20277;-86
2021/10/15 12:23:59;;;;;;;1.95;1.25;;;13.60;99.90;;;;;;4729358;30;20053;-85
2021/10/15 12:26:27;;;;;;;1.25;1.15;;;13.60;99.90;;;;;;4714864;30;20060;-85
2021/10/15 12:28:56;;;;;;;9.13;1.30;;;13.70;99.90;;;;;;4712405;30;20064;-82
2021/10/15 12:39:16;;;;;;;1.88;1.13;;;13.80;99.90;;;;;;4696290;30;20045;-86
2021/10/15 12:42:55;;;;;;;1.67;1.58;;;14.00;99.90;;;;;;4694802;30;20053;-85
2021/10/15 12:45:39;;;;;;;2.05;1.40;;;14.20;99.90;;;;;;4717382;30;20059;-85
2021/10/15 12:48:15;;;;;;;1.08;0.98;;;14.30;99.90;;;;;;4767382;30;20063;-84
2021/10/15 12:51:42;;;;;;;0.85;0.82;;;14.40;99.90;;;;;;4742293;30;20051;-86
2021/10/15 12:54:45;;;;;;;0.70;0.70;;;14.50;99.90;;;;;;4733631;30;20418;-85
2021/10/15 12:57:14;;;;;;;1.00;0.82;;;14.40;99.90;;;;;;4747215;30;20048;-82
2021/10/15 13:00:10;;;;;;;1.30;0.90;;;14.40;99.90;;;;;;4746910;30;20052;-83
2021/10/15 13:02:41;;;;;;;5.15;1.20;;;14.50;99.90;;;;;;4732949;30;20207;-82
2021/10/15 13:05:11;;;;;;;0.85;0.60;;;14.50;99.90;;;;;;4756509;29;20047;-83
2021/10/15 13:12:50;;;;;;;1.95;0.80;;;14.70;99.90;;;;;;4765239;29;20055;-84
2021/10/15 13:15:27;;;;;;;1.52;0.95;;;14.70;99.90;;;;;;4766032;30;20066;-84
2021/10/15 13:18:27;;;;;;;5.28;1.00;;;14.90;99.90;;;;;;4766471;29;20072;-85
2021/10/15 13:24:40;;;;;;;1.33;0.83;;;14.60;99.90;;;;;;4762550;30;20052;-85
2021/10/15 13:27:32;;;;;;;0.60;0.60;;;14.60;99.90;;;;;;4732950;30;20060;-85
2021/10/15 13:30:33;;;;;;;0.90;0.90;;;14.60;99.90;;;;;;4717188;30;20056;-86
2021/10/15 13:34:11;;;;;;;1.05;0.90;;;14.50;99.90;;;;;;4749004;30;20062;-85
2021/10/15 13:50:52;;;;;;;0.82;0.82;;;14.60;99.90;;;;;;4706672;30;20086;-86
2021/10/15 13:53:20;;;;;;;1.10;1.00;;;14.70;99.90;;;;;;4732831;30;20055;-85
2021/10/15 14:00:04;;;;;;;0.80;0.80;;;14.60;99.90;;;;;;4740062;30;20402;-85
2021/10/15 14:09:33;;;;;;;1.00;1.00;;;14.70;99.90;;;;;;4745465;30;20056;-86
2021/10/15 14:12:25;;;;;;;3.22;1.23;;;14.80;99.90;;;;;;4722949;30;20064;-86
2021/10/15 14:15:01;;;;;;;3.15;1.45;;;14.80;99.90;;;;;;4740184;30;20048;-87
2021/10/15 14:17:36;;;;;;;0.88;0.88;;;14.90;99.90;;;;;;4732339;30;20063;-86
2021/10/15 14:20:08;;;;;;;1.30;1.08;;;14.90;99.90;;;;;;4732441;30;20060;-86
2021/10/15 14:22:37;;;;;;;0.98;0.90;;;14.90;99.90;;;;;;4745595;30;20059;-85
2021/10/15 14:25:07;;;;;;;1.00;1.00;;;14.80;99.90;;;;;;4761499;30;20056;-86
2021/10/15 14:27:38;;;;;;;2.30;1.23;;;14.80;99.90;;;;;;4745288;30;20053;-85
2021/10/15 14:30:10;;;;;;;1.40;0.80;;;14.60;99.90;;;;;;4744648;30;20052;-83
2021/10/15 14:32:52;;;;;;;1.02;0.95;;;14.60;99.90;;;;;;4723508;30;20056;-83
2021/10/15 14:36:14;;;;;;;1.00;1.00;;;14.60;99.90;;;;;;4727120;30;20067;-83
2021/10/15 14:39:00;;;;;;;1.45;1.08;;;14.50;99.90;;;;;;4730070;30;20063;-83